sensor_id;sensor_type;location;lat;lon;timestamp;P1;durP1;ratioP1;P2;durP2;ratioP2
59239;SDS011;45010;53.640;10.578;2023-07-30T00:02:23;1.10;;;1.00;;
59239;SDS011;45010;53.640;10.578;2023-07-30T00:05:24;0.95;;;0.85;;
59239;SDS011;45010;53.640;10.578;2023-07-30T00:08:24;0.98;;;0.88;;
59239;SDS011;45010;53.640;10.578;2023-07-30T00:11:24;1.20;;;1.02;;
59239;SDS011;45010;53.640;10.578;2023-07-30T00:14:25;1.30;;;1.20;;
59239;SDS011;45010;53.640;10.578;2023-07-30T00:17:25;1.73;;;1.20;;
59239;SDS011;45010;53.640;10.578;2023-07-30T00:20:25;1.75;;;1.42;;
59239;SDS011;45010;53.640;10.578;2023-07-30T00:23:26;1.40;;;1.00;;
59239;SDS011;45010;53.640;10.578;2023-07-30T00:26:26;1.27;;;0.98;;
59239;SDS011;45010;53.640;10.578;2023-07-30T00:29:26;1.20;;;1.10;;
59239;SDS011;45010;53.640;10.578;2023-07-30T00:32:26;1.33;;;0.90;;
59239;SDS011;45010;53.640;10.578;2023-07-30T00:35:27;1.40;;;1.05;;
59239;SDS011;45010;53.640;10.578;2023-07-30T00:38:27;1.10;;;0.90;;
59239;SDS011;45010;53.640;10.578;2023-07-30T00:41:27;1.08;;;0.90;;
59239;SDS011;45010;53.640;10.578;2023-07-30T00:44:28;1.15;;;0.90;;
59239;SDS011;45010;53.640;10.578;2023-07-30T00:47:28;1.42;;;1.27;;
59239;SDS011;45010;53.640;10.578;2023-07-30T00:50:29;1.40;;;1.00;;
59239;SDS011;45010;53.640;10.578;2023-07-30T00:53:29;1.45;;;1.10;;
59239;SDS011;45010;53.640;10.578;2023-07-30T00:56:30;1.67;;;1.00;;
59239;SDS011;45010;53.640;10.578;2023-07-30T00:59:30;1.00;;;0.88;;
59239;SDS011;45010;53.640;10.578;2023-07-30T01:02:31;1.00;;;0.70;;
59239;SDS011;45010;53.640;10.578;2023-07-30T01:05:31;1.40;;;0.80;;
59239;SDS011;45010;53.640;10.578;2023-07-30T01:08:32;1.63;;;0.80;;
59239;SDS011;45010;53.640;10.578;2023-07-30T01:11:33;1.60;;;1.00;;
59239;SDS011;45010;53.640;10.578;2023-07-30T01:14:33;1.27;;;1.17;;
59239;SDS011;45010;53.640;10.578;2023-07-30T01:17:37;1.10;;;1.00;;
59239;SDS011;45010;53.640;10.578;2023-07-30T01:20:38;1.05;;;0.98;;
59239;SDS011;45010;53.640;10.578;2023-07-30T01:23:38;1.15;;;0.90;;
59239;SDS011;45010;53.640;10.578;2023-07-30T01:26:46;1.08;;;0.90;;
59239;SDS011;45010;53.640;10.578;2023-07-30T01:29:56;1.45;;;1.13;;
59239;SDS011;45010;53.640;10.578;2023-07-30T01:33:06;1.50;;;1.00;;
59239;SDS011;45010;53.640;10.578;2023-07-30T01:36:08;1.17;;;0.90;;
59239;SDS011;45010;53.640;10.578;2023-07-30T01:39:10;1.20;;;0.80;;
59239;SDS011;45010;53.640;10.578;2023-07-30T01:42:12;1.55;;;1.00;;
59239;SDS011;45010;53.640;10.578;2023-07-30T01:45:12;1.10;;;0.77;;
59239;SDS011;45010;53.640;10.578;2023-07-30T01:48:12;1.77;;;0.95;;
59239;SDS011;45010;53.640;10.578;2023-07-30T01:51:13;1.15;;;0.90;;
59239;SDS011;45010;53.640;10.578;2023-07-30T01:54:13;0.70;;;0.70;;
59239;SDS011;45010;53.640;10.578;2023-07-30T01:57:14;0.77;;;0.77;;
59239;SDS011;45010;53.640;10.578;2023-07-30T02:00:14;1.20;;;1.00;;
59239;SDS011;45010;53.640;10.578;2023-07-30T02:03:14;1.05;;;0.95;;
59239;SDS011;45010;53.640;10.578;2023-07-30T02:06:15;0.60;;;0.60;;
59239;SDS011;45010;53.640;10.578;2023-07-30T02:09:15;0.88;;;0.88;;
59239;SDS011;45010;53.640;10.578;2023-07-30T02:12:15;0.95;;;0.80;;
59239;SDS011;45010;53.640;10.578;2023-07-30T02:15:16;1.00;;;0.90;;
59239;SDS011;45010;53.640;10.578;2023-07-30T02:18:16;0.85;;;0.80;;
59239;SDS011;45010;53.640;10.578;2023-07-30T02:21:16;1.08;;;0.80;;
59239;SDS011;45010;53.640;10.578;2023-07-30T02:24:17;1.23;;;0.90;;
59239;SDS011;45010;53.640;10.578;2023-07-30T02:27:17;1.08;;;0.95;;
59239;SDS011;45010;53.640;10.578;2023-07-30T02:30:17;0.90;;;0.90;;
59239;SDS011;45010;53.640;10.578;2023-07-30T02:33:18;1.00;;;0.85;;
59239;SDS011;45010;53.640;10.578;2023-07-30T02:36:18;1.40;;;0.93;;
59239;SDS011;45010;53.640;10.578;2023-07-30T02:39:18;0.80;;;0.80;;
59239;SDS011;45010;53.640;10.578;2023-07-30T02:42:19;0.80;;;0.60;;
59239;SDS011;45010;53.640;10.578;2023-07-30T02:45:19;1.00;;;0.80;;
59239;SDS011;45010;53.640;10.578;2023-07-30T02:48:19;0.80;;;0.80;;
59239;SDS011;45010;53.640;10.578;2023-07-30T02:51:20;1.13;;;0.88;;
59239;SDS011;45010;53.640;10.578;2023-07-30T02:54:20;2.25;;;0.95;;
59239;SDS011;45010;53.640;10.578;2023-07-30T02:57:22;2.22;;;0.90;;
59239;SDS011;45010;53.640;10.578;2023-07-30T03:00:22;3.50;;;1.20;;
59239;SDS011;45010;53.640;10.578;2023-07-30T03:03:22;1.92;;;1.75;;
59239;SDS011;45010;53.640;10.578;2023-07-30T03:06:23;4.00;;;2.00;;
59239;SDS011;45010;53.640;10.578;2023-07-30T03:09:23;3.15;;;1.95;;
59239;SDS011;45010;53.640;10.578;2023-07-30T03:12:23;4.95;;;1.60;;
59239;SDS011;45010;53.640;10.578;2023-07-30T03:15:24;2.35;;;1.95;;
59239;SDS011;45010;53.640;10.578;2023-07-30T03:18:24;2.60;;;1.40;;
59239;SDS011;45010;53.640;10.578;2023-07-30T03:21:24;4.78;;;2.35;;
59239;SDS011;45010;53.640;10.578;2023-07-30T03:24:25;3.92;;;1.65;;
59239;SDS011;45010;53.640;10.578;2023-07-30T03:27:25;3.90;;;1.98;;
59239;SDS011;45010;53.640;10.578;2023-07-30T03:30:25;4.28;;;1.90;;
59239;SDS011;45010;53.640;10.578;2023-07-30T03:33:26;3.95;;;1.85;;
59239;SDS011;45010;53.640;10.578;2023-07-30T03:36:26;3.58;;;1.80;;
59239;SDS011;45010;53.640;10.578;2023-07-30T03:39:26;3.47;;;1.90;;
59239;SDS011;45010;53.640;10.578;2023-07-30T03:42:27;7.95;;;2.25;;
59239;SDS011;45010;53.640;10.578;2023-07-30T03:45:27;5.15;;;2.05;;
59239;SDS011;45010;53.640;10.578;2023-07-30T03:48:27;4.40;;;2.00;;
59239;SDS011;45010;53.640;10.578;2023-07-30T03:51:28;7.80;;;2.70;;
59239;SDS011;45010;53.640;10.578;2023-07-30T03:54:28;6.13;;;2.30;;
59239;SDS011;45010;53.640;10.578;2023-07-30T03:57:28;8.52;;;2.30;;
59239;SDS011;45010;53.640;10.578;2023-07-30T04:00:29;3.65;;;2.03;;
59239;SDS011;45010;53.640;10.578;2023-07-30T04:03:29;6.63;;;2.00;;
59239;SDS011;45010;53.640;10.578;2023-07-30T04:06:29;5.50;;;2.25;;
59239;SDS011;45010;53.640;10.578;2023-07-30T04:09:30;4.00;;;2.53;;
59239;SDS011;45010;53.640;10.578;2023-07-30T04:12:30;5.35;;;2.65;;
59239;SDS011;45010;53.640;10.578;2023-07-30T04:15:30;5.80;;;2.13;;
59239;SDS011;45010;53.640;10.578;2023-07-30T04:18:31;4.35;;;2.35;;
59239;SDS011;45010;53.640;10.578;2023-07-30T04:21:31;4.22;;;1.95;;
59239;SDS011;45010;53.640;10.578;2023-07-30T04:24:31;6.68;;;2.55;;
59239;SDS011;45010;53.640;10.578;2023-07-30T04:27:32;5.05;;;2.55;;
59239;SDS011;45010;53.640;10.578;2023-07-30T04:30:32;6.30;;;2.80;;
59239;SDS011;45010;53.640;10.578;2023-07-30T04:33:32;3.22;;;2.03;;
59239;SDS011;45010;53.640;10.578;2023-07-30T04:36:33;5.78;;;2.38;;
59239;SDS011;45010;53.640;10.578;2023-07-30T04:39:34;2.78;;;1.88;;
59239;SDS011;45010;53.640;10.578;2023-07-30T04:42:35;4.72;;;1.73;;
59239;SDS011;45010;53.640;10.578;2023-07-30T04:45:35;3.45;;;2.22;;
59239;SDS011;45010;53.640;10.578;2023-07-30T04:48:36;5.00;;;2.00;;
59239;SDS011;45010;53.640;10.578;2023-07-30T04:51:37;4.00;;;2.58;;
59239;SDS011;45010;53.640;10.578;2023-07-30T04:54:38;5.80;;;2.33;;
59239;SDS011;45010;53.640;10.578;2023-07-30T04:57:38;4.93;;;2.08;;
59239;SDS011;45010;53.640;10.578;2023-07-30T05:00:39;2.80;;;2.00;;
59239;SDS011;45010;53.640;10.578;2023-07-30T05:03:39;4.68;;;2.30;;
59239;SDS011;45010;53.640;10.578;2023-07-30T05:06:40;3.15;;;1.65;;
59239;SDS011;45010;53.640;10.578;2023-07-30T05:09:40;4.63;;;2.10;;
59239;SDS011;45010;53.640;10.578;2023-07-30T05:12:40;5.65;;;2.10;;
59239;SDS011;45010;53.640;10.578;2023-07-30T05:15:41;2.80;;;1.70;;
59239;SDS011;45010;53.640;10.578;2023-07-30T05:18:41;3.65;;;2.33;;
59239;SDS011;45010;53.640;10.578;2023-07-30T05:21:42;5.47;;;2.28;;
59239;SDS011;45010;53.640;10.578;2023-07-30T05:24:42;6.30;;;3.15;;
59239;SDS011;45010;53.640;10.578;2023-07-30T05:27:42;3.38;;;2.90;;
59239;SDS011;45010;53.640;10.578;2023-07-30T05:30:43;3.25;;;2.50;;
59239;SDS011;45010;53.640;10.578;2023-07-30T05:33:44;3.53;;;2.58;;
59239;SDS011;45010;53.640;10.578;2023-07-30T05:36:44;2.80;;;2.50;;
59239;SDS011;45010;53.640;10.578;2023-07-30T05:39:44;3.25;;;2.67;;
59239;SDS011;45010;53.640;10.578;2023-07-30T05:42:45;3.80;;;2.50;;
59239;SDS011;45010;53.640;10.578;2023-07-30T05:45:45;3.95;;;2.78;;
59239;SDS011;45010;53.640;10.578;2023-07-30T05:48:46;5.20;;;2.40;;
59239;SDS011;45010;53.640;10.578;2023-07-30T05:51:46;4.82;;;2.88;;
59239;SDS011;45010;53.640;10.578;2023-07-30T05:54:46;4.43;;;2.70;;
59239;SDS011;45010;53.640;10.578;2023-07-30T05:57:46;5.50;;;2.60;;
59239;SDS011;45010;53.640;10.578;2023-07-30T06:00:47;5.35;;;2.55;;
59239;SDS011;45010;53.640;10.578;2023-07-30T06:03:47;4.35;;;2.53;;
59239;SDS011;45010;53.640;10.578;2023-07-30T06:06:47;4.05;;;2.40;;
59239;SDS011;45010;53.640;10.578;2023-07-30T06:09:48;3.75;;;2.47;;
59239;SDS011;45010;53.640;10.578;2023-07-30T06:12:48;3.33;;;2.45;;
59239;SDS011;45010;53.640;10.578;2023-07-30T06:15:49;4.30;;;2.28;;
59239;SDS011;45010;53.640;10.578;2023-07-30T06:18:49;2.22;;;1.88;;
59239;SDS011;45010;53.640;10.578;2023-07-30T06:21:49;4.55;;;2.47;;
59239;SDS011;45010;53.640;10.578;2023-07-30T06:24:50;4.45;;;2.20;;
59239;SDS011;45010;53.640;10.578;2023-07-30T06:27:50;2.88;;;2.05;;
59239;SDS011;45010;53.640;10.578;2023-07-30T06:30:51;4.57;;;2.50;;
59239;SDS011;45010;53.640;10.578;2023-07-30T06:33:51;4.05;;;2.28;;
59239;SDS011;45010;53.640;10.578;2023-07-30T06:36:54;5.00;;;2.42;;
59239;SDS011;45010;53.640;10.578;2023-07-30T06:39:54;2.83;;;1.88;;
59239;SDS011;45010;53.640;10.578;2023-07-30T06:42:54;2.92;;;2.38;;
59239;SDS011;45010;53.640;10.578;2023-07-30T06:45:55;2.53;;;2.30;;
59239;SDS011;45010;53.640;10.578;2023-07-30T06:48:55;5.28;;;2.50;;
59239;SDS011;45010;53.640;10.578;2023-07-30T06:51:55;4.43;;;2.13;;
59239;SDS011;45010;53.640;10.578;2023-07-30T06:54:56;4.32;;;2.28;;
59239;SDS011;45010;53.640;10.578;2023-07-30T06:57:56;3.85;;;2.70;;
59239;SDS011;45010;53.640;10.578;2023-07-30T07:00:56;6.93;;;2.60;;
59239;SDS011;45010;53.640;10.578;2023-07-30T07:03:57;4.75;;;2.33;;
59239;SDS011;45010;53.640;10.578;2023-07-30T07:06:57;5.60;;;3.00;;
59239;SDS011;45010;53.640;10.578;2023-07-30T07:09:57;4.63;;;2.58;;
59239;SDS011;45010;53.640;10.578;2023-07-30T07:12:58;3.78;;;2.53;;
59239;SDS011;45010;53.640;10.578;2023-07-30T07:15:58;4.15;;;2.33;;
59239;SDS011;45010;53.640;10.578;2023-07-30T07:18:58;3.15;;;2.15;;
59239;SDS011;45010;53.640;10.578;2023-07-30T07:21:59;4.97;;;2.17;;
59239;SDS011;45010;53.640;10.578;2023-07-30T07:24:59;6.35;;;2.90;;
59239;SDS011;45010;53.640;10.578;2023-07-30T07:28:00;9.45;;;3.13;;
59239;SDS011;45010;53.640;10.578;2023-07-30T07:31:00;7.07;;;3.35;;
59239;SDS011;45010;53.640;10.578;2023-07-30T07:34:01;8.82;;;3.60;;
59239;SDS011;45010;53.640;10.578;2023-07-30T07:37:02;10.32;;;4.32;;
59239;SDS011;45010;53.640;10.578;2023-07-30T07:40:02;9.77;;;4.90;;
59239;SDS011;45010;53.640;10.578;2023-07-30T07:43:03;10.35;;;4.43;;
59239;SDS011;45010;53.640;10.578;2023-07-30T07:46:03;7.13;;;4.32;;
59239;SDS011;45010;53.640;10.578;2023-07-30T07:49:04;10.18;;;4.90;;
59239;SDS011;45010;53.640;10.578;2023-07-30T07:52:04;7.10;;;4.70;;
59239;SDS011;45010;53.640;10.578;2023-07-30T07:55:05;7.70;;;4.50;;
59239;SDS011;45010;53.640;10.578;2023-07-30T07:58:05;10.15;;;4.80;;
59239;SDS011;45010;53.640;10.578;2023-07-30T08:01:05;9.18;;;4.57;;
59239;SDS011;45010;53.640;10.578;2023-07-30T08:04:06;9.90;;;4.57;;
59239;SDS011;45010;53.640;10.578;2023-07-30T08:07:06;7.90;;;5.15;;
59239;SDS011;45010;53.640;10.578;2023-07-30T08:10:06;10.15;;;5.03;;
59239;SDS011;45010;53.640;10.578;2023-07-30T08:13:07;10.65;;;4.90;;
59239;SDS011;45010;53.640;10.578;2023-07-30T08:16:07;7.40;;;4.95;;
59239;SDS011;45010;53.640;10.578;2023-07-30T08:19:08;9.40;;;5.13;;
59239;SDS011;45010;53.640;10.578;2023-07-30T08:22:08;11.80;;;4.85;;
59239;SDS011;45010;53.640;10.578;2023-07-30T08:25:08;11.65;;;4.88;;
59239;SDS011;45010;53.640;10.578;2023-07-30T08:28:09;8.38;;;5.05;;
59239;SDS011;45010;53.640;10.578;2023-07-30T08:31:09;10.02;;;4.63;;
59239;SDS011;45010;53.640;10.578;2023-07-30T08:34:09;12.38;;;4.95;;
59239;SDS011;45010;53.640;10.578;2023-07-30T08:37:10;9.55;;;4.88;;
59239;SDS011;45010;53.640;10.578;2023-07-30T08:40:10;11.68;;;4.53;;
59239;SDS011;45010;53.640;10.578;2023-07-30T08:43:11;12.20;;;4.30;;
59239;SDS011;45010;53.640;10.578;2023-07-30T08:46:11;11.60;;;4.05;;
59239;SDS011;45010;53.640;10.578;2023-07-30T08:49:11;8.85;;;4.28;;
59239;SDS011;45010;53.640;10.578;2023-07-30T08:52:12;10.25;;;4.28;;
59239;SDS011;45010;53.640;10.578;2023-07-30T08:55:13;10.50;;;4.40;;
59239;SDS011;45010;53.640;10.578;2023-07-30T08:58:15;7.97;;;4.00;;
59239;SDS011;45010;53.640;10.578;2023-07-30T09:01:17;7.68;;;3.60;;
59239;SDS011;45010;53.640;10.578;2023-07-30T09:04:18;9.20;;;3.80;;
59239;SDS011;45010;53.640;10.578;2023-07-30T09:07:19;7.85;;;3.55;;
59239;SDS011;45010;53.640;10.578;2023-07-30T09:10:19;5.78;;;3.63;;
59239;SDS011;45010;53.640;10.578;2023-07-30T09:13:20;10.40;;;3.95;;
59239;SDS011;45010;53.640;10.578;2023-07-30T09:16:24;9.43;;;3.53;;
59239;SDS011;45010;53.640;10.578;2023-07-30T09:19:26;8.18;;;3.30;;
59239;SDS011;45010;53.640;10.578;2023-07-30T09:22:27;6.00;;;3.10;;
59239;SDS011;45010;53.640;10.578;2023-07-30T09:25:29;7.65;;;2.72;;
59239;SDS011;45010;53.640;10.578;2023-07-30T09:28:32;7.07;;;2.75;;
59239;SDS011;45010;53.640;10.578;2023-07-30T09:31:32;10.23;;;3.00;;
59239;SDS011;45010;53.640;10.578;2023-07-30T09:34:44;10.90;;;3.75;;
59239;SDS011;45010;53.640;10.578;2023-07-30T09:37:45;9.52;;;2.75;;
59239;SDS011;45010;53.640;10.578;2023-07-30T09:40:46;8.68;;;2.80;;
59239;SDS011;45010;53.640;10.578;2023-07-30T09:43:49;10.07;;;3.78;;
59239;SDS011;45010;53.640;10.578;2023-07-30T09:46:58;6.85;;;2.72;;
59239;SDS011;45010;53.640;10.578;2023-07-30T09:49:58;7.72;;;2.65;;
59239;SDS011;45010;53.640;10.578;2023-07-30T09:53:00;6.10;;;2.80;;
59239;SDS011;45010;53.640;10.578;2023-07-30T09:56:02;5.20;;;2.38;;
59239;SDS011;45010;53.640;10.578;2023-07-30T09:59:06;9.90;;;2.63;;
59239;SDS011;45010;53.640;10.578;2023-07-30T10:02:08;5.75;;;2.10;;
59239;SDS011;45010;53.640;10.578;2023-07-30T10:05:15;10.48;;;2.45;;
59239;SDS011;45010;53.640;10.578;2023-07-30T10:08:19;6.03;;;2.83;;
59239;SDS011;45010;53.640;10.578;2023-07-30T10:11:23;9.27;;;2.65;;
59239;SDS011;45010;53.640;10.578;2023-07-30T10:14:24;6.90;;;3.13;;
59239;SDS011;45010;53.640;10.578;2023-07-30T10:17:25;11.43;;;3.20;;
59239;SDS011;45010;53.640;10.578;2023-07-30T10:20:26;10.15;;;3.00;;
59239;SDS011;45010;53.640;10.578;2023-07-30T10:23:29;8.85;;;2.60;;
59239;SDS011;45010;53.640;10.578;2023-07-30T10:26:33;11.20;;;2.58;;
59239;SDS011;45010;53.640;10.578;2023-07-30T10:29:35;10.18;;;3.13;;
59239;SDS011;45010;53.640;10.578;2023-07-30T10:32:56;10.05;;;2.38;;
59239;SDS011;45010;53.640;10.578;2023-07-30T10:36:01;7.45;;;2.67;;
59239;SDS011;45010;53.640;10.578;2023-07-30T10:39:14;7.53;;;2.92;;
59239;SDS011;45010;53.640;10.578;2023-07-30T10:42:15;8.77;;;2.67;;
59239;SDS011;45010;53.640;10.578;2023-07-30T10:45:18;9.20;;;2.85;;
59239;SDS011;45010;53.640;10.578;2023-07-30T10:48:18;7.18;;;2.78;;
59239;SDS011;45010;53.640;10.578;2023-07-30T10:51:18;8.40;;;2.50;;
59239;SDS011;45010;53.640;10.578;2023-07-30T10:54:20;9.65;;;2.45;;
59239;SDS011;45010;53.640;10.578;2023-07-30T10:57:20;9.52;;;2.80;;
59239;SDS011;45010;53.640;10.578;2023-07-30T11:00:22;8.07;;;2.13;;
59239;SDS011;45010;53.640;10.578;2023-07-30T11:03:25;7.30;;;2.25;;
59239;SDS011;45010;53.640;10.578;2023-07-30T11:06:29;7.30;;;2.55;;
59239;SDS011;45010;53.640;10.578;2023-07-30T11:09:29;9.75;;;3.03;;
59239;SDS011;45010;53.640;10.578;2023-07-30T11:12:30;6.85;;;2.17;;
59239;SDS011;45010;53.640;10.578;2023-07-30T11:15:30;10.32;;;2.53;;
59239;SDS011;45010;53.640;10.578;2023-07-30T11:18:31;5.43;;;2.10;;
59239;SDS011;45010;53.640;10.578;2023-07-30T11:21:33;7.63;;;2.65;;
59239;SDS011;45010;53.640;10.578;2023-07-30T11:24:34;7.93;;;2.50;;
59239;SDS011;45010;53.640;10.578;2023-07-30T11:27:45;8.55;;;2.60;;
59239;SDS011;45010;53.640;10.578;2023-07-30T11:30:46;7.63;;;2.90;;
59239;SDS011;45010;53.640;10.578;2023-07-30T11:33:47;8.10;;;3.15;;
59239;SDS011;45010;53.640;10.578;2023-07-30T11:36:48;7.43;;;2.30;;
59239;SDS011;45010;53.640;10.578;2023-07-30T11:39:49;7.15;;;2.53;;
59239;SDS011;45010;53.640;10.578;2023-07-30T11:42:52;8.48;;;2.50;;
59239;SDS011;45010;53.640;10.578;2023-07-30T11:49:15;7.75;;;2.35;;
59239;SDS011;45010;53.640;10.578;2023-07-30T11:52:21;10.32;;;2.42;;
59239;SDS011;45010;53.640;10.578;2023-07-30T11:55:22;8.32;;;2.50;;
59239;SDS011;45010;53.640;10.578;2023-07-30T11:58:24;8.32;;;2.55;;
59239;SDS011;45010;53.640;10.578;2023-07-30T12:01:29;9.00;;;2.60;;
59239;SDS011;45010;53.640;10.578;2023-07-30T12:04:31;8.95;;;2.58;;
59239;SDS011;45010;53.640;10.578;2023-07-30T12:07:42;10.07;;;2.92;;
59239;SDS011;45010;53.640;10.578;2023-07-30T12:10:44;5.95;;;2.45;;
59239;SDS011;45010;53.640;10.578;2023-07-30T12:13:46;5.00;;;1.85;;
59239;SDS011;45010;53.640;10.578;2023-07-30T12:16:46;4.78;;;1.98;;
59239;SDS011;45010;53.640;10.578;2023-07-30T12:19:47;8.30;;;1.80;;
59239;SDS011;45010;53.640;10.578;2023-07-30T12:22:47;6.20;;;2.13;;
59239;SDS011;45010;53.640;10.578;2023-07-30T12:25:47;6.07;;;1.80;;
59239;SDS011;45010;53.640;10.578;2023-07-30T12:28:48;4.18;;;1.55;;
59239;SDS011;45010;53.640;10.578;2023-07-30T12:31:48;6.10;;;1.75;;
59239;SDS011;45010;53.640;10.578;2023-07-30T12:34:51;5.78;;;2.13;;
59239;SDS011;45010;53.640;10.578;2023-07-30T12:37:52;4.65;;;1.48;;
59239;SDS011;45010;53.640;10.578;2023-07-30T12:40:52;5.95;;;2.08;;
59239;SDS011;45010;53.640;10.578;2023-07-30T12:43:53;14.27;;;1.95;;
59239;SDS011;45010;53.640;10.578;2023-07-30T12:46:54;6.18;;;1.65;;
59239;SDS011;45010;53.640;10.578;2023-07-30T12:49:54;7.82;;;2.10;;
59239;SDS011;45010;53.640;10.578;2023-07-30T12:52:54;6.63;;;2.22;;
59239;SDS011;45010;53.640;10.578;2023-07-30T12:55:55;5.57;;;1.50;;
59239;SDS011;45010;53.640;10.578;2023-07-30T12:58:55;4.05;;;1.52;;
59239;SDS011;45010;53.640;10.578;2023-07-30T13:01:55;4.38;;;1.67;;
59239;SDS011;45010;53.640;10.578;2023-07-30T13:04:56;5.32;;;1.75;;
59239;SDS011;45010;53.640;10.578;2023-07-30T13:07:56;5.75;;;1.73;;
59239;SDS011;45010;53.640;10.578;2023-07-30T13:10:56;3.55;;;1.58;;
59239;SDS011;45010;53.640;10.578;2023-07-30T13:13:57;4.60;;;1.65;;
59239;SDS011;45010;53.640;10.578;2023-07-30T13:16:57;6.75;;;1.75;;
59239;SDS011;45010;53.640;10.578;2023-07-30T13:19:57;5.65;;;2.00;;
59239;SDS011;45010;53.640;10.578;2023-07-30T13:22:58;6.30;;;1.52;;
59239;SDS011;45010;53.640;10.578;2023-07-30T13:25:58;4.35;;;1.60;;
59239;SDS011;45010;53.640;10.578;2023-07-30T13:28:58;5.20;;;1.92;;
59239;SDS011;45010;53.640;10.578;2023-07-30T13:31:59;6.03;;;1.50;;
59239;SDS011;45010;53.640;10.578;2023-07-30T13:34:59;5.38;;;1.63;;
59239;SDS011;45010;53.640;10.578;2023-07-30T13:37:59;4.95;;;1.60;;
59239;SDS011;45010;53.640;10.578;2023-07-30T13:41:00;4.85;;;1.75;;
59239;SDS011;45010;53.640;10.578;2023-07-30T13:44:00;6.90;;;2.53;;
59239;SDS011;45010;53.640;10.578;2023-07-30T13:47:00;6.10;;;1.73;;
59239;SDS011;45010;53.640;10.578;2023-07-30T13:50:01;4.55;;;1.50;;
59239;SDS011;45010;53.640;10.578;2023-07-30T13:53:01;7.15;;;2.53;;
59239;SDS011;45010;53.640;10.578;2023-07-30T13:56:02;4.85;;;1.85;;
59239;SDS011;45010;53.640;10.578;2023-07-30T13:59:02;3.05;;;1.70;;
59239;SDS011;45010;53.640;10.578;2023-07-30T14:02:03;3.88;;;1.65;;
59239;SDS011;45010;53.640;10.578;2023-07-30T14:05:03;4.47;;;2.10;;
59239;SDS011;45010;53.640;10.578;2023-07-30T14:08:04;6.65;;;1.75;;
59239;SDS011;45010;53.640;10.578;2023-07-30T14:11:04;4.95;;;1.50;;
59239;SDS011;45010;53.640;10.578;2023-07-30T14:14:05;7.38;;;1.90;;
59239;SDS011;45010;53.640;10.578;2023-07-30T14:17:05;13.00;;;4.53;;
59239;SDS011;45010;53.640;10.578;2023-07-30T14:20:07;48.35;;;15.98;;
59239;SDS011;45010;53.640;10.578;2023-07-30T14:23:07;106.43;;;38.28;;
59239;SDS011;45010;53.640;10.578;2023-07-30T14:26:07;151.20;;;54.95;;
59239;SDS011;45010;53.640;10.578;2023-07-30T14:29:08;146.88;;;59.92;;
59239;SDS011;45010;53.640;10.578;2023-07-30T14:32:08;166.82;;;63.35;;
59239;SDS011;45010;53.640;10.578;2023-07-30T14:35:08;168.23;;;68.30;;
59239;SDS011;45010;53.640;10.578;2023-07-30T14:38:09;194.68;;;77.57;;
59239;SDS011;45010;53.640;10.578;2023-07-30T14:41:09;177.48;;;74.55;;
59239;SDS011;45010;53.640;10.578;2023-07-30T14:44:11;157.30;;;62.65;;
59239;SDS011;45010;53.640;10.578;2023-07-30T14:47:11;132.38;;;52.05;;
59239;SDS011;45010;53.640;10.578;2023-07-30T14:50:12;107.10;;;41.00;;
59239;SDS011;45010;53.640;10.578;2023-07-30T14:53:13;82.47;;;34.45;;
59239;SDS011;45010;53.640;10.578;2023-07-30T14:56:13;66.90;;;27.77;;
59239;SDS011;45010;53.640;10.578;2023-07-30T14:59:13;50.97;;;23.77;;
59239;SDS011;45010;53.640;10.578;2023-07-30T15:02:14;47.90;;;19.88;;
59239;SDS011;45010;53.640;10.578;2023-07-30T15:05:14;41.17;;;17.45;;
59239;SDS011;45010;53.640;10.578;2023-07-30T15:08:14;39.72;;;16.02;;
59239;SDS011;45010;53.640;10.578;2023-07-30T15:11:15;23.88;;;10.48;;
59239;SDS011;45010;53.640;10.578;2023-07-30T15:14:15;20.63;;;9.23;;
59239;SDS011;45010;53.640;10.578;2023-07-30T15:17:15;18.02;;;7.70;;
59239;SDS011;45010;53.640;10.578;2023-07-30T15:20:16;12.93;;;5.95;;
59239;SDS011;45010;53.640;10.578;2023-07-30T15:23:16;15.05;;;5.47;;
59239;SDS011;45010;53.640;10.578;2023-07-30T15:26:18;11.80;;;5.13;;
59239;SDS011;45010;53.640;10.578;2023-07-30T15:29:20;9.95;;;5.03;;
59239;SDS011;45010;53.640;10.578;2023-07-30T15:32:21;12.50;;;4.97;;
59239;SDS011;45010;53.640;10.578;2023-07-30T15:35:22;11.25;;;4.20;;
59239;SDS011;45010;53.640;10.578;2023-07-30T15:38:22;9.45;;;4.05;;
59239;SDS011;45010;53.640;10.578;2023-07-30T15:41:23;8.50;;;3.65;;
59239;SDS011;45010;53.640;10.578;2023-07-30T15:44:23;6.50;;;3.00;;
59239;SDS011;45010;53.640;10.578;2023-07-30T15:47:23;6.85;;;3.10;;
59239;SDS011;45010;53.640;10.578;2023-07-30T15:50:24;4.75;;;1.95;;
59239;SDS011;45010;53.640;10.578;2023-07-30T15:53:26;5.60;;;2.60;;
59239;SDS011;45010;53.640;10.578;2023-07-30T15:56:26;6.90;;;2.30;;
59239;SDS011;45010;53.640;10.578;2023-07-30T15:59:27;8.50;;;2.47;;
59239;SDS011;45010;53.640;10.578;2023-07-30T16:02:28;9.68;;;2.13;;
59239;SDS011;45010;53.640;10.578;2023-07-30T16:05:29;9.80;;;2.65;;
59239;SDS011;45010;53.640;10.578;2023-07-30T16:08:29;5.85;;;2.38;;
59239;SDS011;45010;53.640;10.578;2023-07-30T16:11:31;8.43;;;2.35;;
59239;SDS011;45010;53.640;10.578;2023-07-30T16:14:33;4.40;;;1.92;;
59239;SDS011;45010;53.640;10.578;2023-07-30T16:17:33;6.18;;;2.63;;
59239;SDS011;45010;53.640;10.578;2023-07-30T16:20:33;6.20;;;2.08;;
59239;SDS011;45010;53.640;10.578;2023-07-30T16:23:34;6.93;;;2.78;;
59239;SDS011;45010;53.640;10.578;2023-07-30T16:26:35;5.95;;;2.28;;
59239;SDS011;45010;53.640;10.578;2023-07-30T16:29:35;5.47;;;2.30;;
59239;SDS011;45010;53.640;10.578;2023-07-30T16:32:35;4.95;;;2.55;;
59239;SDS011;45010;53.640;10.578;2023-07-30T16:35:36;4.18;;;1.98;;
59239;SDS011;45010;53.640;10.578;2023-07-30T16:38:37;7.95;;;2.40;;
59239;SDS011;45010;53.640;10.578;2023-07-30T16:41:37;6.57;;;1.70;;
59239;SDS011;45010;53.640;10.578;2023-07-30T16:44:37;5.35;;;2.17;;
59239;SDS011;45010;53.640;10.578;2023-07-30T16:47:38;4.80;;;2.03;;
59239;SDS011;45010;53.640;10.578;2023-07-30T16:50:38;4.43;;;2.05;;
59239;SDS011;45010;53.640;10.578;2023-07-30T16:53:43;4.00;;;2.15;;
59239;SDS011;45010;53.640;10.578;2023-07-30T16:56:44;4.43;;;1.95;;
59239;SDS011;45010;53.640;10.578;2023-07-30T16:59:44;3.22;;;1.48;;
59239;SDS011;45010;53.640;10.578;2023-07-30T17:02:45;5.32;;;2.03;;
59239;SDS011;45010;53.640;10.578;2023-07-30T17:05:45;4.57;;;1.75;;
59239;SDS011;45010;53.640;10.578;2023-07-30T17:08:45;3.83;;;1.83;;
59239;SDS011;45010;53.640;10.578;2023-07-30T17:11:46;4.68;;;1.73;;
59239;SDS011;45010;53.640;10.578;2023-07-30T17:14:46;2.15;;;1.35;;
59239;SDS011;45010;53.640;10.578;2023-07-30T17:17:47;4.35;;;1.95;;
59239;SDS011;45010;53.640;10.578;2023-07-30T17:20:54;2.17;;;1.20;;
59239;SDS011;45010;53.640;10.578;2023-07-30T17:23:57;3.08;;;1.40;;
59239;SDS011;45010;53.640;10.578;2023-07-30T17:26:57;4.28;;;1.60;;
59239;SDS011;45010;53.640;10.578;2023-07-30T17:29:57;5.13;;;1.63;;
59239;SDS011;45010;53.640;10.578;2023-07-30T17:33:00;3.72;;;1.50;;
59239;SDS011;45010;53.640;10.578;2023-07-30T17:36:01;4.55;;;1.33;;
59239;SDS011;45010;53.640;10.578;2023-07-30T17:39:02;4.63;;;1.60;;
59239;SDS011;45010;53.640;10.578;2023-07-30T17:42:03;2.60;;;1.20;;
59239;SDS011;45010;53.640;10.578;2023-07-30T17:45:04;5.00;;;1.83;;
59239;SDS011;45010;53.640;10.578;2023-07-30T17:48:05;2.50;;;1.10;;
59239;SDS011;45010;53.640;10.578;2023-07-30T17:51:12;3.75;;;1.73;;
59239;SDS011;45010;53.640;10.578;2023-07-30T17:54:16;4.65;;;1.30;;